Time,TemperatureF,DewpointF,PressureIn,WindDirection,WindDirectionDegrees,WindSpeedMPH,WindSpeedGustMPH,Humidity,HourlyPrecipIn,Conditions,Clouds,dailyrainin,SoftwareType,DateUTC
2013-02-12 00:00:00,52.3,28.7,29.93,NNW,338,5.0,9.0,40,0.00,,---,0.07,VWS V14.01,2013-02-12 05:00:00,
2013-02-12 00:05:00,52.5,28.9,29.93,NW,315,4.0,12.0,40,0.00,,---,0.00,VWS V14.01,2013-02-12 05:05:00,
2013-02-12 00:10:00,52.4,28.8,29.93,NW,317,3.0,15.0,40,0.00,,---,0.00,VWS V14.01,2013-02-12 05:10:00,
2013-02-12 00:15:00,52.4,26.9,29.93,NNE,19,5.0,16.0,37,0.00,,---,0.00,VWS V14.01,2013-02-12 05:15:00,
2013-02-12 00:20:00,52.3,26.2,29.93,NNE,24,5.0,9.0,36,0.00,,---,0.00,VWS V14.01,2013-02-12 05:20:00,
2013-02-12 00:25:00,52.2,27.4,29.93,NNW,337,6.0,13.0,38,0.00,,---,0.00,VWS V14.01,2013-02-12 05:25:00,
2013-02-12 00:30:00,52.0,25.9,29.93,NNW,341,12.0,13.0,36,0.00,,---,0.00,VWS V14.01,2013-02-12 05:30:00,
2013-02-12 00:35:00,52.1,21.6,29.93,NNE,13,10.0,18.0,30,0.00,,---,0.00,VWS V14.01,2013-02-12 05:35:00,
2013-02-12 00:40:00,52.0,22.3,29.93,NNW,330,4.0,13.0,31,0.00,,---,0.00,VWS V14.01,2013-02-12 05:40:00,
2013-02-12 00:45:00,51.6,22.0,29.94,NW,326,8.0,11.0,31,0.00,,---,0.00,VWS V14.01,2013-02-12 05:45:00,
2013-02-12 00:50:00,51.5,21.9,29.94,NW,319,8.0,15.0,31,0.00,,---,0.00,VWS V14.01,2013-02-12 05:50:00,
2013-02-12 00:55:00,51.4,21.8,29.94,NW,317,7.0,19.0,31,0.00,,---,0.00,VWS V14.01,2013-02-12 05:55:00,
2013-02-12 01:00:00,51.0,21.5,29.95,WSW,255,8.0,13.0,31,0.00,,---,0.00,VWS V14.01,2013-02-12 06:00:00,
2013-02-12 01:05:00,50.9,21.4,29.95,West,269,4.0,19.0,31,0.00,,---,0.00,VWS V14.01,2013-02-12 06:05:00,
2013-02-12 01:10:00,50.7,21.2,29.95,NW,321,5.0,13.0,31,0.00,,---,0.00,VWS V14.01,2013-02-12 06:10:00,
2013-02-12 01:15:00,50.4,22.4,29.95,NNW,342,6.0,9.0,33,0.00,,---,0.00,VWS V14.01,2013-02-12 06:15:00,
2013-02-12 01:19:00,49.9,22.0,29.95,NNW,327,7.0,11.0,33,0.00,,---,0.00,VWS V14.01,2013-02-12 06:19:00,
2013-02-12 01:24:00,49.9,22.7,29.95,WNW,301,7.0,16.0,34,0.00,,---,0.00,VWS V14.01,2013-02-12 06:24:00,
2013-02-12 01:29:00,49.7,22.5,29.95,NW,325,9.0,14.0,34,0.00,,---,0.00,VWS V14.01,2013-02-12 06:29:00,
2013-02-12 01:34:00,49.5,23.0,29.96,NNW,327,6.0,12.0,35,0.00,,---,0.00,VWS V14.01,2013-02-12 06:34:00,
2013-02-12 01:39:00,49.0,23.9,29.95,NW,308,4.0,11.0,37,0.00,,---,0.00,VWS V14.01,2013-02-12 06:39:00,
2013-02-12 01:44:00,48.9,23.8,29.96,NNW,345,9.0,13.0,37,0.00,,---,0.00,VWS V14.01,2013-02-12 06:44:00,
2013-02-12 01:49:00,48.8,23.7,29.96,NW,325,8.0,12.0,37,0.00,,---,0.00,VWS V14.01,2013-02-12 06:49:00,
2013-02-12 01:54:00,48.6,23.5,29.96,WNW,284,8.0,13.0,37,0.00,,---,0.00,VWS V14.01,2013-02-12 06:54:00,
2013-02-12 01:59:00,48.3,23.9,29.96,NW,319,6.0,13.0,38,0.00,,---,0.00,VWS V14.01,2013-02-12 06:59:00,
2013-02-12 02:04:00,48.2,24.4,29.96,North,5,6.0,11.0,39,0.00,,---,0.00,VWS V14.01,2013-02-12 07:04:00,
2013-02-12 02:09:00,48.1,24.3,29.96,North,350,8.0,14.0,39,0.00,,---,0.00,VWS V14.01,2013-02-12 07:09:00,
2013-02-12 02:14:00,47.8,24.7,29.96,NNW,332,10.0,18.0,40,0.00,,---,0.00,VWS V14.01,2013-02-12 07:14:00,
2013-02-12 02:19:00,47.6,25.1,29.96,NW,304,6.0,14.0,41,0.00,,---,0.00,VWS V14.01,2013-02-12 07:19:00,
2013-02-12 02:24:00,47.4,25.5,29.96,WNW,293,11.0,14.0,42,0.00,,---,0.00,VWS V14.01,2013-02-12 07:24:00,
2013-02-12 02:29:00,47.2,24.7,29.97,NW,312,5.0,10.0,41,0.00,,---,0.00,VWS V14.01,2013-02-12 07:29:00,
2013-02-12 02:34:00,47.1,25.2,29.97,NW,316,5.0,13.0,42,0.00,,---,0.00,VWS V14.01,2013-02-12 07:34:00,
2013-02-12 02:39:00,46.9,25.0,29.96,NW,309,7.0,14.0,42,0.00,,---,0.00,VWS V14.01,2013-02-12 07:39:00,
2013-02-12 02:44:00,46.8,25.5,29.97,NNW,333,9.0,12.0,43,0.00,,---,0.00,VWS V14.01,2013-02-12 07:44:00,
2013-02-12 02:49:00,46.8,25.5,29.98,NW,318,9.0,13.0,43,0.00,,---,0.00,VWS V14.01,2013-02-12 07:49:00,
2013-02-12 02:54:00,46.5,25.8,29.97,NNW,343,5.0,13.0,44,0.00,,---,0.00,VWS V14.01,2013-02-12 07:54:00,
2013-02-12 02:59:00,46.4,25.7,29.97,NNW,332,5.0,10.0,44,0.00,,---,0.00,VWS V14.01,2013-02-12 07:59:00,
2013-02-12 03:04:00,46.3,26.1,29.97,NNW,333,5.0,10.0,45,0.00,,---,0.00,VWS V14.01,2013-02-12 08:04:00,
2013-02-12 03:09:00,46.3,26.1,29.97,South,188,5.0,11.0,45,0.00,,---,0.00,VWS V14.01,2013-02-12 08:09:00,
2013-02-12 03:14:00,46.2,26.6,29.97,North,5,6.0,7.0,46,0.00,,---,0.00,VWS V14.01,2013-02-12 08:14:00,
2013-02-12 03:19:00,45.9,26.3,29.97,NNW,339,7.0,11.0,46,0.00,,---,0.00,VWS V14.01,2013-02-12 08:19:00,
2013-02-12 03:24:00,45.9,26.3,29.97,West,276,2.0,14.0,46,0.00,,---,0.00,VWS V14.01,2013-02-12 08:24:00,
2013-02-12 03:29:00,45.6,27.1,29.97,NW,310,6.0,7.0,48,0.00,,---,0.00,VWS V14.01,2013-02-12 08:29:00,
2013-02-12 03:34:00,45.2,27.2,29.98,NNW,329,6.0,6.0,49,0.00,,---,0.00,VWS V14.01,2013-02-12 08:34:00,
2013-02-12 03:39:00,45.0,26.5,29.98,NNW,338,1.0,6.0,48,0.00,,---,0.00,VWS V14.01,2013-02-12 08:39:00,
2013-02-12 03:44:00,45.1,27.1,29.98,WNW,295,3.0,6.0,49,0.00,,---,0.00,VWS V14.01,2013-02-12 08:44:00,
2013-02-12 03:49:00,44.9,26.9,29.98,NNW,343,6.0,7.0,49,0.00,,---,0.00,VWS V14.01,2013-02-12 08:49:00,
2013-02-12 03:54:00,44.6,26.6,29.98,North,360,4.0,12.0,49,0.00,,---,0.00,VWS V14.01,2013-02-12 08:54:00,
2013-02-12 03:59:00,44.6,26.6,29.98,WNW,303,8.0,10.0,49,0.00,,---,0.00,VWS V14.01,2013-02-12 08:59:00,
2013-02-12 04:04:00,44.7,28.2,29.98,NNW,328,3.0,12.0,52,0.00,,---,0.00,VWS V14.01,2013-02-12 09:04:00,
2013-02-12 04:09:00,43.9,27.0,29.97,NNW,329,8.0,9.0,51,0.00,,---,0.00,VWS V14.01,2013-02-12 09:09:00,
2013-02-12 04:14:00,44.4,26.5,29.97,NNW,332,6.0,12.0,49,0.00,,---,0.00,VWS V14.01,2013-02-12 09:14:00,
2013-02-12 04:19:00,44.2,26.8,29.97,NW,324,6.0,7.0,50,0.00,,---,0.00,VWS V14.01,2013-02-12 09:19:00,
2013-02-12 04:24:00,44.3,26.9,29.98,NW,307,6.0,9.0,50,0.00,,---,0.00,VWS V14.01,2013-02-12 09:24:00,
2013-02-12 04:29:00,44.2,26.8,29.98,NW,313,10.0,10.0,50,0.00,,---,0.00,VWS V14.01,2013-02-12 09:29:00,
2013-02-12 04:34:00,44.0,27.0,29.98,NW,321,7.0,11.0,51,0.00,,---,0.00,VWS V14.01,2013-02-12 09:34:00,
2013-02-12 04:39:00,44.3,25.9,29.98,NW,314,6.0,13.0,48,0.00,,---,0.00,VWS V14.01,2013-02-12 09:39:00,
2013-02-12 04:44:00,44.0,27.5,29.98,North,9,4.0,7.0,52,0.00,,---,0.00,VWS V14.01,2013-02-12 09:44:00,
2013-02-12 04:49:00,43.6,26.7,29.98,NW,309,4.0,6.0,51,0.00,,---,0.00,VWS V14.01,2013-02-12 09:49:00,
2013-02-12 04:54:00,43.6,26.2,29.97,NNW,344,8.0,10.0,50,0.00,,---,0.00,VWS V14.01,2013-02-12 09:54:00,
2013-02-12 04:59:00,43.8,26.4,29.98,NNW,328,7.0,11.0,50,0.00,,---,0.00,VWS V14.01,2013-02-12 09:59:00,
2013-02-12 05:04:00,43.9,26.5,29.98,NNW,339,4.0,10.0,50,0.00,,---,0.00,VWS V14.01,2013-02-12 10:04:00,
2013-02-12 05:09:00,43.7,28.2,29.98,NW,320,6.0,10.0,54,0.00,,---,0.00,VWS V14.01,2013-02-12 10:09:00,
2013-02-12 05:14:00,43.7,26.3,29.98,NW,323,7.0,13.0,50,0.00,,---,0.00,VWS V14.01,2013-02-12 10:14:00,
2013-02-12 05:19:00,43.8,26.9,29.99,NW,322,5.0,10.0,51,0.00,,---,0.00,VWS V14.01,2013-02-12 10:19:00,
2013-02-12 05:24:00,43.8,26.9,29.99,NW,318,3.0,15.0,51,0.00,,---,0.00,VWS V14.01,2013-02-12 10:24:00,
2013-02-12 05:29:00,43.9,26.5,29.99,NW,310,6.0,15.0,50,0.00,,---,0.00,VWS V14.01,2013-02-12 10:29:00,
2013-02-12 05:34:00,44.0,26.1,30.00,NNW,333,4.0,13.0,49,0.00,,---,0.00,VWS V14.01,2013-02-12 10:34:00,
2013-02-12 05:39:00,43.9,26.5,30.00,NNW,330,5.0,8.0,50,0.00,,---,0.00,VWS V14.01,2013-02-12 10:39:00,
2013-02-12 05:44:00,43.5,27.5,29.99,NNW,330,6.0,8.0,53,0.00,,---,0.00,VWS V14.01,2013-02-12 10:44:00,
2013-02-12 05:49:00,43.4,26.5,29.99,North,360,4.0,10.0,51,0.00,,---,0.00,VWS V14.01,2013-02-12 10:49:00,
2013-02-12 05:54:00,43.4,26.5,29.99,NNW,327,5.0,11.0,51,0.00,,---,0.00,VWS V14.01,2013-02-12 10:54:00,
2013-02-12 05:59:00,43.5,26.1,30.00,NNW,333,8.0,15.0,50,0.00,,---,0.00,VWS V14.01,2013-02-12 10:59:00,
2013-02-12 06:04:00,43.4,26.0,29.99,NNW,334,5.0,20.0,50,0.00,,---,0.00,VWS V14.01,2013-02-12 11:04:00,
2013-02-12 06:09:00,43.4,26.0,29.99,NW,322,9.0,12.0,50,0.00,,---,0.00,VWS V14.01,2013-02-12 11:09:00,
2013-02-12 06:14:00,43.4,26.0,30.00,NNW,327,5.0,13.0,50,0.00,,---,0.00,VWS V14.01,2013-02-12 11:14:00,
2013-02-12 06:19:00,43.4,25.0,30.00,NNW,340,11.0,14.0,48,0.00,,---,0.00,VWS V14.01,2013-02-12 11:19:00,
2013-02-12 06:24:00,43.5,25.1,30.00,NW,316,5.0,11.0,48,0.00,,---,0.00,VWS V14.01,2013-02-12 11:24:00,
2013-02-12 06:29:00,43.4,25.0,30.00,NNW,328,8.0,15.0,48,0.00,,---,0.00,VWS V14.01,2013-02-12 11:29:00,
2013-02-12 06:34:00,43.3,25.4,30.00,NNW,333,8.0,11.0,49,0.00,,---,0.00,VWS V14.01,2013-02-12 11:34:00,
2013-02-12 06:39:00,43.2,24.9,30.00,NNW,347,6.0,15.0,48,0.00,,---,0.00,VWS V14.01,2013-02-12 11:39:00,
2013-02-12 06:44:00,43.3,24.9,30.00,NNW,340,4.0,19.0,48,0.00,,---,0.00,VWS V14.01,2013-02-12 11:44:00,
2013-02-12 06:49:00,43.1,24.8,30.01,NNW,343,12.0,12.0,48,0.00,,---,0.00,VWS V14.01,2013-02-12 11:49:00,
2013-02-12 06:54:00,43.2,25.4,30.00,NNW,338,6.0,17.0,49,0.00,,---,0.00,VWS V14.01,2013-02-12 11:54:00,
2013-02-12 06:59:00,43.2,24.9,30.00,North,351,10.0,13.0,48,0.00,,---,0.00,VWS V14.01,2013-02-12 11:59:00,
2013-02-12 07:04:00,43.0,25.2,30.01,North,355,6.0,12.0,49,0.00,,---,0.00,VWS V14.01,2013-02-12 12:04:00,
2013-02-12 07:09:00,42.7,24.9,30.00,NNE,14,10.0,12.0,49,0.00,,---,0.00,VWS V14.01,2013-02-12 12:09:00,
2013-02-12 07:14:00,42.8,25.9,30.00,NNW,333,8.0,16.0,51,0.00,,---,0.00,VWS V14.01,2013-02-12 12:14:00,
2013-02-12 07:19:00,42.7,24.9,30.00,NNW,331,9.0,12.0,49,0.00,,---,0.00,VWS V14.01,2013-02-12 12:19:00,
2013-02-12 07:24:00,42.9,25.1,30.00,NW,319,10.0,16.0,49,0.00,,---,0.00,VWS V14.01,2013-02-12 12:24:00,
2013-02-12 07:29:00,42.9,25.1,30.00,NW,321,8.0,13.0,49,0.00,,---,0.00,VWS V14.01,2013-02-12 12:29:00,
2013-02-12 07:34:00,42.7,25.9,30.00,NNW,340,8.0,11.0,51,0.00,,---,0.00,VWS V14.01,2013-02-12 12:34:00,
2013-02-12 07:39:00,42.7,25.4,30.00,NW,309,9.0,19.0,50,0.00,,---,0.00,VWS V14.01,2013-02-12 12:39:00,
2013-02-12 07:44:00,42.8,25.0,30.01,NNW,335,9.0,16.0,49,0.00,,---,0.00,VWS V14.01,2013-02-12 12:44:00,
2013-02-12 07:49:00,42.9,25.1,30.01,NNW,331,8.0,19.0,49,0.00,,---,0.00,VWS V14.01,2013-02-12 12:49:00,
2013-02-12 07:54:00,42.8,25.5,30.00,NNW,337,8.0,13.0,50,0.00,,---,0.00,VWS V14.01,2013-02-12 12:54:00,
2013-02-12 07:59:00,42.6,25.3,30.00,NNW,344,6.0,12.0,50,0.00,,---,0.00,VWS V14.01,2013-02-12 12:59:00,
2013-02-12 08:04:00,42.7,25.4,30.00,NNW,344,6.0,17.0,50,0.00,,---,0.00,VWS V14.01,2013-02-12 13:04:00,
2013-02-12 08:09:00,42.7,24.9,30.01,NNW,329,7.0,13.0,49,0.00,,---,0.00,VWS V14.01,2013-02-12 13:09:00,
2013-02-12 08:14:00,42.8,25.0,30.01,NW,317,7.0,15.0,49,0.00,,---,0.00,VWS V14.01,2013-02-12 13:14:00,
2013-02-12 08:19:00,42.9,25.1,30.01,NNW,331,12.0,16.0,49,0.00,,---,0.00,VWS V14.01,2013-02-12 13:19:00,
2013-02-12 08:24:00,43.1,25.3,30.01,NW,317,6.0,23.0,49,0.00,,---,0.00,VWS V14.01,2013-02-12 13:24:00,
2013-02-12 08:29:00,43.2,25.4,30.01,NW,324,14.0,15.0,49,0.00,,---,0.00,VWS V14.01,2013-02-12 13:29:00,
2013-02-12 08:34:00,43.3,24.9,30.00,NW,312,10.0,21.0,48,0.00,,---,0.00,VWS V14.01,2013-02-12 13:34:00,
2013-02-12 08:39:00,43.3,25.4,30.00,NW,319,8.0,20.0,49,0.00,,---,0.00,VWS V14.01,2013-02-12 13:39:00,
2013-02-12 08:44:00,43.4,25.5,30.01,North,355,10.0,16.0,49,0.00,,---,0.00,VWS V14.01,2013-02-12 13:44:00,
2013-02-12 08:49:00,43.6,25.2,30.01,NW,313,8.0,15.0,48,0.00,,---,0.00,VWS V14.01,2013-02-12 13:49:00,
2013-02-12 08:54:00,43.6,25.2,30.01,NW,324,6.0,17.0,48,0.00,,---,0.00,VWS V14.01,2013-02-12 13:54:00,
2013-02-12 08:59:00,43.7,25.3,30.01,NW,323,13.0,15.0,48,0.00,,---,0.00,VWS V14.01,2013-02-12 13:59:00,
2013-02-12 09:04:00,43.7,24.8,30.01,North,360,8.0,17.0,47,0.00,,---,0.00,VWS V14.01,2013-02-12 14:04:00,
2013-02-12 09:09:00,43.7,25.8,30.01,NNW,339,3.0,13.0,49,0.00,,---,0.00,VWS V14.01,2013-02-12 14:09:00,
2013-02-12 09:14:00,43.9,25.5,30.01,NW,322,9.0,21.0,48,0.00,,---,0.00,VWS V14.01,2013-02-12 14:14:00,
2013-02-12 09:19:00,44.0,25.1,30.01,NNW,327,13.0,23.0,47,0.00,,---,0.00,VWS V14.01,2013-02-12 14:19:00,
2013-02-12 09:24:00,44.1,25.2,30.01,NNW,331,1.0,13.0,47,0.00,,---,0.00,VWS V14.01,2013-02-12 14:24:00,
2013-02-12 09:29:00,44.2,25.3,30.01,NNW,330,9.0,10.0,47,0.00,,---,0.00,VWS V14.01,2013-02-12 14:29:00,
2013-02-12 09:34:00,44.5,25.5,30.01,North,360,6.0,16.0,47,0.00,,---,0.00,VWS V14.01,2013-02-12 14:34:00,
2013-02-12 09:39:00,44.7,25.7,30.01,NW,325,10.0,14.0,47,0.00,,---,0.00,VWS V14.01,2013-02-12 14:39:00,
2013-02-12 09:44:00,44.9,24.9,30.02,NNW,332,8.0,18.0,45,0.00,,---,0.00,VWS V14.01,2013-02-12 14:44:00,
2013-02-12 09:49:00,44.9,24.9,30.02,NNW,338,4.0,16.0,45,0.00,,---,0.00,VWS V14.01,2013-02-12 14:49:00,
2013-02-12 09:54:00,45.0,25.0,30.02,WNW,297,6.0,14.0,45,0.00,,---,0.00,VWS V14.01,2013-02-12 14:54:00,
2013-02-12 09:59:00,45.2,25.1,30.02,North,360,4.0,12.0,45,0.00,,---,0.00,VWS V14.01,2013-02-12 14:59:00,
2013-02-12 10:04:00,45.4,24.8,30.02,NW,319,7.0,12.0,44,0.00,,---,0.00,VWS V14.01,2013-02-12 15:04:00,
2013-02-12 10:09:00,45.6,25.5,30.02,NNW,346,2.0,13.0,45,0.00,,---,0.00,VWS V14.01,2013-02-12 15:09:00,
2013-02-12 10:14:00,45.8,24.6,30.02,North,355,13.0,13.0,43,0.00,,---,0.00,VWS V14.01,2013-02-12 15:14:00,
2013-02-12 10:19:00,45.9,24.7,30.02,NNW,333,5.0,13.0,43,0.00,,---,0.00,VWS V14.01,2013-02-12 15:19:00,
2013-02-12 10:24:00,46.1,24.9,30.02,North,355,9.0,10.0,43,0.00,,---,0.00,VWS V14.01,2013-02-12 15:24:00,
2013-02-12 10:29:00,46.3,25.0,30.02,NNW,341,2.0,10.0,43,0.00,,---,0.00,VWS V14.01,2013-02-12 15:29:00,
2013-02-12 10:34:00,46.5,24.7,30.02,North,360,5.0,12.0,42,0.00,,---,0.00,VWS V14.01,2013-02-12 15:34:00,
2013-02-12 10:39:00,46.5,24.7,30.03,NNW,333,6.0,10.0,42,0.00,,---,0.00,VWS V14.01,2013-02-12 15:39:00,
2013-02-12 10:44:00,46.7,25.4,30.03,NW,320,5.0,13.0,43,0.00,,---,0.00,VWS V14.01,2013-02-12 15:44:00,
2013-02-12 10:49:00,47.0,25.1,30.03,NNW,333,5.0,9.0,42,0.00,,---,0.00,VWS V14.01,2013-02-12 15:49:00,
2013-02-12 10:54:00,47.3,24.8,30.03,NNW,338,4.0,11.0,41,0.00,,---,0.00,VWS V14.01,2013-02-12 15:54:00,
2013-02-12 10:59:00,47.5,25.0,30.03,North,355,6.0,8.0,41,0.00,,---,0.00,VWS V14.01,2013-02-12 15:59:00,
2013-02-12 11:04:00,47.8,25.3,30.03,West,261,4.0,8.0,41,0.00,,---,0.00,VWS V14.01,2013-02-12 16:04:00,
2013-02-12 11:09:00,48.1,24.9,30.03,NW,315,5.0,11.0,40,0.00,,---,0.00,VWS V14.01,2013-02-12 16:09:00,
2013-02-12 11:14:00,48.4,26.4,30.03,North,11,2.0,6.0,42,0.00,,---,0.00,VWS V14.01,2013-02-12 16:14:00,
2013-02-12 11:19:00,48.7,24.9,30.03,WNW,292,3.0,7.0,39,0.00,,---,0.00,VWS V14.01,2013-02-12 16:19:00,
2013-02-12 11:24:00,48.9,25.0,30.03,NW,318,3.0,10.0,39,0.00,,---,0.00,VWS V14.01,2013-02-12 16:24:00,
2013-02-12 11:29:00,49.2,25.9,30.03,NW,304,9.0,10.0,40,0.00,,---,0.00,VWS V14.01,2013-02-12 16:29:00,
2013-02-12 11:34:00,49.5,27.4,30.03,West,277,6.0,10.0,42,0.00,,---,0.00,VWS V14.01,2013-02-12 16:34:00,
2013-02-12 11:39:00,49.6,25.7,30.03,NNW,347,6.0,10.0,39,0.00,,---,0.00,VWS V14.01,2013-02-12 16:39:00,
2013-02-12 11:44:00,49.7,25.1,30.03,NW,319,6.0,8.0,38,0.00,,---,0.00,VWS V14.01,2013-02-12 16:44:00,
2013-02-12 11:49:00,49.7,24.5,30.03,West,279,2.0,8.0,37,0.00,,---,0.00,VWS V14.01,2013-02-12 16:49:00,
2013-02-12 11:54:00,50.0,24.8,30.02,NW,323,4.0,6.0,37,0.00,,---,0.00,VWS V14.01,2013-02-12 16:54:00,
2013-02-12 11:59:00,50.2,24.3,30.02,NW,315,6.0,10.0,36,0.00,,---,0.00,VWS V14.01,2013-02-12 16:59:00,
2013-02-12 12:04:00,50.3,24.4,30.02,NW,323,5.0,7.0,36,0.00,,---,0.00,VWS V14.01,2013-02-12 17:04:00,
2013-02-12 12:09:00,50.4,25.1,30.01,WNW,298,6.0,9.0,37,0.00,,---,0.00,VWS V14.01,2013-02-12 17:09:00,
2013-02-12 12:14:00,50.6,24.6,30.01,WSW,252,2.0,8.0,36,0.00,,---,0.00,VWS V14.01,2013-02-12 17:14:00,
2013-02-12 12:19:00,51.0,24.3,30.00,WNW,292,10.0,11.0,35,0.00,,---,0.00,VWS V14.01,2013-02-12 17:19:00,
2013-02-12 12:24:00,51.5,24.8,30.00,NNW,330,7.0,11.0,35,0.00,,---,0.00,VWS V14.01,2013-02-12 17:24:00,
2013-02-12 12:29:00,51.8,25.0,30.00,NW,316,2.0,6.0,35,0.00,,---,0.00,VWS V14.01,2013-02-12 17:29:00,
2013-02-12 12:34:00,52.1,23.9,29.99,WNW,301,1.0,8.0,33,0.00,,---,0.00,VWS V14.01,2013-02-12 17:34:00,
2013-02-12 12:39:00,52.3,26.2,29.98,West,271,1.0,7.0,36,0.00,,---,0.00,VWS V14.01,2013-02-12 17:39:00,
2013-02-12 12:44:00,52.4,25.6,29.98,North,5,4.0,4.0,35,0.00,,---,0.00,VWS V14.01,2013-02-12 17:44:00,
2013-02-12 12:49:00,52.4,24.9,29.97,SW,223,4.0,5.0,34,0.00,,---,0.00,VWS V14.01,2013-02-12 17:49:00,
2013-02-12 12:54:00,52.6,25.0,29.97,WNW,289,4.0,5.0,34,0.00,,---,0.00,VWS V14.01,2013-02-12 17:54:00,
2013-02-12 12:59:00,52.8,24.5,29.95,WSW,245,1.0,7.0,33,0.00,,---,0.00,VWS V14.01,2013-02-12 17:59:00,
2013-02-12 13:04:00,52.8,23.8,29.94,NW,315,3.0,7.0,32,0.00,,---,0.00,VWS V14.01,2013-02-12 18:04:00,
2013-02-12 13:09:00,52.8,23.8,29.94,West,270,2.0,7.0,32,0.00,,---,0.00,VWS V14.01,2013-02-12 18:09:00,
2013-02-12 13:14:00,52.8,25.2,29.93,NNW,340,5.0,6.0,34,0.00,,---,0.00,VWS V14.01,2013-02-12 18:14:00,
2013-02-12 13:19:00,53.1,24.0,29.92,NW,309,5.0,7.0,32,0.00,,---,0.00,VWS V14.01,2013-02-12 18:19:00,
2013-02-12 13:24:00,53.3,25.7,29.90,WSW,257,1.0,5.0,34,0.00,,---,0.00,VWS V14.01,2013-02-12 18:24:00,
2013-02-12 13:29:00,53.6,24.5,29.92,NNW,341,2.0,4.0,32,0.00,,---,0.00,VWS V14.01,2013-02-12 18:29:00,
2013-02-12 13:33:00,53.8,23.9,29.93,NW,313,1.0,6.0,31,0.00,,---,0.00,VWS V14.01,2013-02-12 18:33:00,
2013-02-12 13:38:00,53.7,24.6,29.95,SW,232,4.0,5.0,32,0.00,,---,0.00,VWS V14.01,2013-02-12 18:38:00,
2013-02-12 13:43:00,54.1,24.2,29.96,West,263,3.0,8.0,31,0.00,,---,0.00,VWS V14.01,2013-02-12 18:43:00,
2013-02-12 13:48:00,54.2,25.0,29.96,WSW,246,4.0,5.0,32,0.00,,---,0.00,VWS V14.01,2013-02-12 18:48:00,
2013-02-12 13:53:00,54.8,25.5,29.97,West,267,2.0,6.0,32,0.00,,---,0.00,VWS V14.01,2013-02-12 18:53:00,
2013-02-12 13:58:00,55.1,26.5,29.98,WSW,256,4.0,7.0,33,0.00,,---,0.00,VWS V14.01,2013-02-12 18:58:00,
2013-02-12 14:03:00,55.6,26.2,29.98,SW,233,3.0,8.0,32,0.00,,---,0.00,VWS V14.01,2013-02-12 19:03:00,
2013-02-12 14:08:00,56.0,26.6,29.98,WSW,250,5.0,9.0,32,0.00,,---,0.00,VWS V14.01,2013-02-12 19:08:00,
2013-02-12 14:13:00,56.2,26.0,29.98,SW,229,7.0,8.0,31,0.00,,---,0.00,VWS V14.01,2013-02-12 19:13:00,
2013-02-12 14:18:00,56.2,25.2,29.98,SSW,211,1.0,7.0,30,0.00,,---,0.00,VWS V14.01,2013-02-12 19:18:00,
2013-02-12 14:23:00,56.5,25.5,29.98,South,170,0.0,6.0,30,0.00,,---,0.00,VWS V14.01,2013-02-12 19:23:00,
2013-02-12 14:28:00,56.6,26.3,29.97,South,188,5.0,7.0,31,0.00,,---,0.00,VWS V14.01,2013-02-12 19:28:00,
2013-02-12 14:33:00,56.7,24.8,29.97,SSW,202,2.0,6.0,29,0.00,,---,0.00,VWS V14.01,2013-02-12 19:33:00,
2013-02-12 14:38:00,56.7,24.8,29.97,West,268,3.0,4.0,29,0.00,,---,0.00,VWS V14.01,2013-02-12 19:38:00,
2013-02-12 14:43:00,57.0,25.1,29.96,NW,325,2.0,4.0,29,0.00,,---,0.00,VWS V14.01,2013-02-12 19:43:00,
2013-02-12 14:48:00,57.1,26.0,29.97,SW,231,5.0,7.0,30,0.00,,---,0.00,VWS V14.01,2013-02-12 19:48:00,
2013-02-12 14:53:00,57.1,26.8,29.97,SSE,157,3.0,6.0,31,0.00,,---,0.00,VWS V14.01,2013-02-12 19:53:00,
2013-02-12 14:58:00,57.0,27.5,29.97,SSW,196,4.0,7.0,32,0.00,,---,0.00,VWS V14.01,2013-02-12 19:58:00,
2013-02-12 15:03:00,56.8,28.8,29.97,SSW,194,3.0,6.0,34,0.00,,---,0.00,VWS V14.01,2013-02-12 20:03:00,
2013-02-12 15:08:00,56.8,27.3,29.97,SSW,213,0.0,5.0,32,0.00,,---,0.00,VWS V14.01,2013-02-12 20:08:00,
2013-02-12 15:13:00,56.7,26.4,29.97,South,187,1.0,4.0,31,0.00,,---,0.00,VWS V14.01,2013-02-12 20:13:00,
2013-02-12 15:18:00,56.6,26.3,29.97,South,187,0.0,1.0,31,0.00,,---,0.00,VWS V14.01,2013-02-12 20:18:00,
2013-02-12 15:23:00,56.6,26.3,29.96,SW,225,2.0,4.0,31,0.00,,---,0.00,VWS V14.01,2013-02-12 20:23:00,
2013-02-12 15:28:00,56.6,27.1,29.95,SW,225,1.0,2.0,32,0.00,,---,0.00,VWS V14.01,2013-02-12 20:28:00,
2013-02-12 15:33:00,56.6,27.1,29.95,SW,225,1.0,3.0,32,0.00,,---,0.00,VWS V14.01,2013-02-12 20:33:00,
2013-02-12 15:38:00,56.6,27.1,29.94,SW,227,1.0,3.0,32,0.00,,---,0.00,VWS V14.01,2013-02-12 20:38:00,
2013-02-12 15:43:00,56.9,28.8,29.94,SSE,154,0.0,4.0,34,0.00,,---,0.00,VWS V14.01,2013-02-12 20:43:00,
2013-02-12 15:48:00,57.2,26.9,29.93,SE,130,1.0,3.0,31,0.00,,---,0.00,VWS V14.01,2013-02-12 20:48:00,
2013-02-12 15:53:00,57.3,25.3,29.94,West,259,0.0,5.0,29,0.00,,---,0.00,VWS V14.01,2013-02-12 20:53:00,
2013-02-12 15:58:00,57.0,25.9,29.94,West,261,1.0,4.0,30,0.00,,---,0.00,VWS V14.01,2013-02-12 20:58:00,
2013-02-12 16:03:00,56.8,25.7,29.94,WSW,245,1.0,3.0,30,0.00,,---,0.00,VWS V14.01,2013-02-12 21:03:00,
2013-02-12 16:08:00,56.7,25.6,29.95,SW,232,2.0,6.0,30,0.00,,---,0.00,VWS V14.01,2013-02-12 21:08:00,
2013-02-12 16:13:00,56.5,24.6,29.95,NW,311,3.0,6.0,29,0.00,,---,0.00,VWS V14.01,2013-02-12 21:13:00,
2013-02-12 16:18:00,56.3,26.1,29.96,West,265,4.0,5.0,31,0.00,,---,0.00,VWS V14.01,2013-02-12 21:18:00,
2013-02-12 16:23:00,56.1,24.3,29.96,SW,228,1.0,6.0,29,0.00,,---,0.00,VWS V14.01,2013-02-12 21:23:00,
2013-02-12 16:28:00,56.0,25.0,29.97,WSW,254,1.0,4.0,30,0.00,,---,0.00,VWS V14.01,2013-02-12 21:28:00,
2013-02-12 16:33:00,55.8,24.9,29.97,NW,325,1.0,4.0,30,0.00,,---,0.00,VWS V14.01,2013-02-12 21:33:00,
2013-02-12 16:38:00,55.6,24.7,29.97,WSW,240,3.0,5.0,30,0.00,,---,0.00,VWS V14.01,2013-02-12 21:38:00,
2013-02-12 16:43:00,55.5,24.6,29.97,SW,232,1.0,4.0,30,0.00,,---,0.00,VWS V14.01,2013-02-12 21:43:00,
2013-02-12 16:48:00,55.4,26.0,29.97,SW,217,0.0,4.0,32,0.00,,---,0.00,VWS V14.01,2013-02-12 21:48:00,
2013-02-12 16:53:00,55.3,24.4,29.96,West,278,2.0,4.0,30,0.00,,---,0.00,VWS V14.01,2013-02-12 21:53:00,
2013-02-12 16:58:00,55.1,24.2,29.96,West,270,2.0,5.0,30,0.00,,---,0.00,VWS V14.01,2013-02-12 21:58:00,
2013-02-12 17:03:00,55.0,23.4,29.96,West,267,2.0,5.0,29,0.00,,---,0.00,VWS V14.01,2013-02-12 22:03:00,
2013-02-12 17:08:00,54.9,23.3,29.96,West,267,1.0,2.0,29,0.00,,---,0.00,VWS V14.01,2013-02-12 22:08:00,
2013-02-12 17:13:00,54.8,24.0,29.96,WSW,238,1.0,4.0,30,0.00,,---,0.00,VWS V14.01,2013-02-12 22:13:00,
2013-02-12 17:18:00,54.6,24.6,29.96,WSW,238,0.0,1.0,31,0.00,,---,0.00,VWS V14.01,2013-02-12 22:18:00,
2013-02-12 17:23:00,54.5,24.5,29.96,WSW,238,1.0,2.0,31,0.00,,---,0.00,VWS V14.01,2013-02-12 22:23:00,
2013-02-12 17:28:00,54.2,23.5,29.96,WSW,238,2.0,3.0,30,0.00,,---,0.00,VWS V14.01,2013-02-12 22:28:00,
2013-02-12 17:33:00,54.1,23.4,29.95,WSW,238,0.0,2.0,30,0.00,,---,0.00,VWS V14.01,2013-02-12 22:33:00,
2013-02-12 17:38:00,53.9,23.2,29.95,WSW,238,0.0,2.0,30,0.00,,---,0.00,VWS V14.01,2013-02-12 22:38:00,
2013-02-12 17:43:00,53.8,23.1,29.95,WSW,238,0.0,1.0,30,0.00,,---,0.00,VWS V14.01,2013-02-12 22:43:00,
2013-02-12 17:48:00,53.7,23.0,29.95,WSW,238,0.0,0.0,30,0.00,,---,0.00,VWS V14.01,2013-02-12 22:48:00,
2013-02-12 17:53:00,53.5,22.9,29.95,WSW,238,0.0,0.0,30,0.00,,---,0.00,VWS V14.01,2013-02-12 22:53:00,
2013-02-12 17:58:00,53.4,22.8,29.95,WSW,238,0.0,1.0,30,0.00,,---,0.00,VWS V14.01,2013-02-12 22:58:00,
2013-02-12 18:03:00,53.3,23.5,29.95,WSW,238,0.0,0.0,31,0.00,,---,0.00,VWS V14.01,2013-02-12 23:03:00,
2013-02-12 18:08:00,53.0,22.4,29.95,WSW,238,0.0,1.0,30,0.00,,---,0.00,VWS V14.01,2013-02-12 23:08:00,
2013-02-12 18:13:00,52.9,22.3,29.95,WSW,238,0.0,0.0,30,0.00,,---,0.00,VWS V14.01,2013-02-12 23:13:00,
2013-02-12 18:18:00,52.8,22.2,29.95,WSW,238,0.0,1.0,30,0.00,,---,0.00,VWS V14.01,2013-02-12 23:18:00,
2013-02-12 18:23:00,52.8,23.0,29.95,WSW,238,0.0,0.0,31,0.00,,---,0.00,VWS V14.01,2013-02-12 23:23:00,
2013-02-12 18:28:00,52.6,23.6,29.95,WSW,238,0.0,0.0,32,0.00,,---,0.00,VWS V14.01,2013-02-12 23:28:00,
2013-02-12 18:33:00,52.5,22.8,29.96,WSW,238,1.0,1.0,31,0.00,,---,0.00,VWS V14.01,2013-02-12 23:33:00,
2013-02-12 18:38:00,52.4,23.4,29.95,WSW,238,0.0,2.0,32,0.00,,---,0.00,VWS V14.01,2013-02-12 23:38:00,
2013-02-12 18:43:00,52.3,23.3,29.95,WSW,238,0.0,1.0,32,0.00,,---,0.00,VWS V14.01,2013-02-12 23:43:00,
2013-02-12 18:48:00,52.1,23.2,29.95,WSW,238,0.0,1.0,32,0.00,,---,0.00,VWS V14.01,2013-02-12 23:48:00,
2013-02-12 18:53:00,52.0,22.3,29.94,WSW,238,0.0,2.0,31,0.00,,---,0.00,VWS V14.01,2013-02-12 23:53:00,
2013-02-12 18:58:00,52.1,22.4,29.94,WSW,238,0.0,4.0,31,0.00,,---,0.00,VWS V14.01,2013-02-12 23:58:00,
2013-02-12 19:03:00,52.2,22.5,29.94,WSW,238,1.0,2.0,31,0.00,,---,0.00,VWS V14.01,2013-02-13 00:03:00,
2013-02-12 19:08:00,52.2,23.2,29.94,WSW,238,0.0,1.0,32,0.00,,---,0.00,VWS V14.01,2013-02-13 00:08:00,
2013-02-12 19:13:00,52.1,22.4,29.94,WSW,238,0.0,1.0,31,0.00,,---,0.00,VWS V14.01,2013-02-13 00:13:00,
2013-02-12 19:18:00,51.9,23.0,29.93,WSW,238,0.0,1.0,32,0.00,,---,0.00,VWS V14.01,2013-02-13 00:18:00,
2013-02-12 19:23:00,51.7,22.8,29.93,WSW,238,0.0,1.0,32,0.00,,---,0.00,VWS V14.01,2013-02-13 00:23:00,
2013-02-12 19:28:00,51.7,22.8,29.93,WSW,238,0.0,0.0,32,0.00,,---,0.00,VWS V14.01,2013-02-13 00:28:00,
2013-02-12 19:33:00,51.6,22.0,29.93,WSW,238,0.0,0.0,31,0.00,,---,0.00,VWS V14.01,2013-02-13 00:33:00,
2013-02-12 19:38:00,51.6,22.7,29.93,WSW,238,0.0,0.0,32,0.00,,---,0.00,VWS V14.01,2013-02-13 00:38:00,
2013-02-12 19:43:00,51.5,23.4,29.93,WSW,238,0.0,1.0,33,0.00,,---,0.00,VWS V14.01,2013-02-13 00:43:00,
2013-02-12 19:48:00,51.3,23.2,29.93,WSW,238,0.0,0.0,33,0.00,,---,0.00,VWS V14.01,2013-02-13 00:48:00,
2013-02-12 19:53:00,51.1,23.0,29.92,WSW,238,0.0,1.0,33,0.00,,---,0.00,VWS V14.01,2013-02-13 00:53:00,
2013-02-12 19:58:00,51.1,23.0,29.92,WSW,238,0.0,0.0,33,0.00,,---,0.00,VWS V14.01,2013-02-13 00:58:00,
2013-02-12 20:03:00,51.0,22.9,29.92,WSW,238,0.0,0.0,33,0.00,,---,0.00,VWS V14.01,2013-02-13 01:03:00,
2013-02-12 20:08:00,50.8,25.5,29.92,WSW,238,0.0,0.0,37,0.00,,---,0.00,VWS V14.01,2013-02-13 01:08:00,
2013-02-12 20:13:00,50.4,24.5,29.92,WSW,238,0.0,0.0,36,0.00,,---,0.00,VWS V14.01,2013-02-13 01:13:00,
2013-02-12 20:18:00,50.1,24.2,29.93,WSW,238,0.0,0.0,36,0.00,,---,0.00,VWS V14.01,2013-02-13 01:18:00,
2013-02-12 20:23:00,49.7,25.1,29.94,WSW,238,0.0,0.0,38,0.00,,---,0.00,VWS V14.01,2013-02-13 01:23:00,
2013-02-12 20:28:00,49.4,25.5,29.94,WSW,238,0.0,0.0,39,0.00,,---,0.00,VWS V14.01,2013-02-13 01:28:00,
2013-02-12 20:33:00,49.0,24.5,29.94,WSW,238,0.0,0.0,38,0.00,,---,0.00,VWS V14.01,2013-02-13 01:33:00,
2013-02-12 20:38:00,48.7,26.1,29.94,WSW,238,0.0,0.0,41,0.00,,---,0.00,VWS V14.01,2013-02-13 01:38:00,
2013-02-12 20:43:00,48.3,26.3,29.95,WSW,238,0.0,1.0,42,0.00,,---,0.00,VWS V14.01,2013-02-13 01:43:00,
2013-02-12 20:48:00,48.1,26.7,29.95,WSW,238,0.0,0.0,43,0.00,,---,0.00,VWS V14.01,2013-02-13 01:48:00,
2013-02-12 20:53:00,47.9,27.0,29.96,WSW,238,0.0,0.0,44,0.00,,---,0.00,VWS V14.01,2013-02-13 01:53:00,
2013-02-12 20:58:00,47.7,27.4,29.95,WSW,238,0.0,0.0,45,0.00,,---,0.00,VWS V14.01,2013-02-13 01:58:00,
2013-02-12 21:03:00,47.5,28.3,29.95,WSW,238,0.0,0.0,47,0.00,,---,0.00,VWS V14.01,2013-02-13 02:03:00,
2013-02-12 21:08:00,47.3,29.1,29.95,WSW,238,1.0,2.0,49,0.00,,---,0.00,VWS V14.01,2013-02-13 02:08:00,
2013-02-12 21:13:00,47.2,25.3,29.95,WSW,238,0.0,1.0,42,0.00,,---,0.00,VWS V14.01,2013-02-13 02:13:00,
2013-02-12 21:18:00,47.4,26.0,29.95,WSW,238,0.0,0.0,43,0.00,,---,0.00,VWS V14.01,2013-02-13 02:18:00,
2013-02-12 21:23:00,47.6,26.2,29.95,WSW,238,0.0,1.0,43,0.00,,---,0.00,VWS V14.01,2013-02-13 02:23:00,
2013-02-12 21:28:00,47.5,25.6,29.95,WSW,238,0.0,1.0,42,0.00,,---,0.00,VWS V14.01,2013-02-13 02:28:00,
2013-02-12 21:33:00,47.5,26.1,29.95,WSW,238,2.0,2.0,43,0.00,,---,0.00,VWS V14.01,2013-02-13 02:33:00,
2013-02-12 21:38:00,47.5,26.1,29.95,WSW,238,2.0,2.0,43,0.00,,---,0.00,VWS V14.01,2013-02-13 02:38:00,
2013-02-12 21:43:00,47.4,26.0,29.95,WSW,238,1.0,3.0,43,0.00,,---,0.00,VWS V14.01,2013-02-13 02:43:00,
2013-02-12 21:48:00,47.3,26.0,29.95,WSW,238,1.0,1.0,43,0.00,,---,0.00,VWS V14.01,2013-02-13 02:48:00,
2013-02-12 21:53:00,47.3,26.5,29.95,WSW,238,0.0,2.0,44,0.00,,---,0.00,VWS V14.01,2013-02-13 02:53:00,
2013-02-12 21:58:00,47.2,25.3,29.95,WSW,238,0.0,2.0,42,0.00,,---,0.00,VWS V14.01,2013-02-13 02:58:00,
2013-02-12 22:03:00,47.3,26.0,29.96,WSW,238,0.0,1.0,43,0.00,,---,0.00,VWS V14.01,2013-02-13 03:03:00,
2013-02-12 22:08:00,47.3,24.8,29.95,WSW,238,0.0,0.0,41,0.00,,---,0.00,VWS V14.01,2013-02-13 03:08:00,
2013-02-12 22:13:00,47.5,24.4,29.94,WSW,238,0.0,1.0,40,0.00,,---,0.00,VWS V14.01,2013-02-13 03:13:00,
2013-02-12 22:18:00,47.8,26.4,29.93,WSW,238,1.0,1.0,43,0.00,,---,0.00,VWS V14.01,2013-02-13 03:18:00,
2013-02-12 22:23:00,47.7,26.9,29.93,WSW,238,0.0,1.0,44,0.00,,---,0.00,VWS V14.01,2013-02-13 03:23:00,
2013-02-12 22:28:00,47.5,28.3,29.93,WSW,238,0.0,1.0,47,0.00,,---,0.00,VWS V14.01,2013-02-13 03:28:00,
2013-02-12 22:33:00,47.1,27.9,29.94,WSW,238,0.0,1.0,47,0.00,,---,0.00,VWS V14.01,2013-02-13 03:33:00,
2013-02-12 22:38:00,46.8,25.5,29.93,WSW,238,0.0,0.0,43,0.00,,---,0.00,VWS V14.01,2013-02-13 03:38:00,
2013-02-12 22:43:00,46.7,26.5,29.93,WSW,238,0.0,0.0,45,0.00,,---,0.00,VWS V14.01,2013-02-13 03:43:00,
2013-02-12 22:48:00,46.5,26.9,29.93,WSW,238,0.0,0.0,46,0.00,,---,0.00,VWS V14.01,2013-02-13 03:48:00,
2013-02-12 22:53:00,46.4,26.8,29.93,WSW,238,0.0,0.0,46,0.00,,---,0.00,VWS V14.01,2013-02-13 03:53:00,
2013-02-12 22:58:00,46.3,27.7,29.93,WSW,238,0.0,0.0,48,0.00,,---,0.00,VWS V14.01,2013-02-13 03:58:00,
2013-02-12 23:03:00,46.0,28.4,29.94,WSW,238,0.0,0.0,50,0.00,,---,0.00,VWS V14.01,2013-02-13 04:03:00,
2013-02-12 23:08:00,45.7,30.0,29.94,WSW,238,0.0,2.0,54,0.00,,---,0.00,VWS V14.01,2013-02-13 04:08:00,
2013-02-12 23:13:00,45.3,29.2,29.94,WSW,238,1.0,2.0,53,0.00,,---,0.00,VWS V14.01,2013-02-13 04:13:00,
2013-02-12 23:18:00,45.1,28.1,29.93,WSW,238,0.0,2.0,51,0.00,,---,0.00,VWS V14.01,2013-02-13 04:18:00,
2013-02-12 23:23:00,45.0,27.0,29.93,WSW,238,0.0,0.0,49,0.00,,---,0.00,VWS V14.01,2013-02-13 04:23:00,
2013-02-12 23:28:00,44.9,27.9,29.94,WSW,238,0.0,0.0,51,0.00,,---,0.00,VWS V14.01,2013-02-13 04:28:00,
2013-02-12 23:32:00,44.8,27.3,29.94,WSW,238,0.0,0.0,50,0.00,,---,0.00,VWS V14.01,2013-02-13 04:32:00,
2013-02-12 23:37:00,44.7,28.2,29.94,WSW,238,0.0,0.0,52,0.00,,---,0.00,VWS V14.01,2013-02-13 04:37:00,
2013-02-12 23:42:00,44.5,28.5,29.94,WSW,238,0.0,2.0,53,0.00,,---,0.00,VWS V14.01,2013-02-13 04:42:00,
2013-02-12 23:47:00,44.5,28.5,29.93,WSW,238,0.0,1.0,53,0.00,,---,0.00,VWS V14.01,2013-02-13 04:47:00,
2013-02-12 23:52:00,44.5,26.5,29.93,WSW,238,0.0,1.0,49,0.00,,---,0.00,VWS V14.01,2013-02-13 04:52:00,
2013-02-12 23:57:00,44.7,25.2,29.93,WSW,238,0.0,0.0,46,0.00,,---,0.00,VWS V14.01,2013-02-13 04:57:00,